sensor_id;sensor_type;location;lat;lon;timestamp;temperature;humidity
33269;DHT22;19640;50.944;5.260;2023-07-31T00:00:41;17.30;99.90
33269;DHT22;19640;50.944;5.260;2023-07-31T00:03:06;17.20;99.90
33269;DHT22;19640;50.944;5.260;2023-07-31T00:05:32;17.20;99.90
33269;DHT22;19640;50.944;5.260;2023-07-31T00:08:00;17.10;99.90
33269;DHT22;19640;50.944;5.260;2023-07-31T00:10:25;17.00;99.90
33269;DHT22;19640;50.944;5.260;2023-07-31T00:12:51;16.90;99.90
33269;DHT22;19640;50.944;5.260;2023-07-31T00:15:16;16.90;99.90
33269;DHT22;19640;50.944;5.260;2023-07-31T00:17:42;16.90;99.90
33269;DHT22;19640;50.944;5.260;2023-07-31T00:20:08;17.00;99.90
33269;DHT22;19640;50.944;5.260;2023-07-31T00:22:35;16.90;99.90
33269;DHT22;19640;50.944;5.260;2023-07-31T00:25:01;17.00;99.90
33269;DHT22;19640;50.944;5.260;2023-07-31T00:27:27;16.90;99.90
33269;DHT22;19640;50.944;5.260;2023-07-31T00:29:53;16.90;99.90
33269;DHT22;19640;50.944;5.260;2023-07-31T00:32:18;16.90;99.90
33269;DHT22;19640;50.944;5.260;2023-07-31T00:34:44;17.00;99.90
33269;DHT22;19640;50.944;5.260;2023-07-31T00:37:10;17.00;99.90
33269;DHT22;19640;50.944;5.260;2023-07-31T00:39:36;17.00;99.90
33269;DHT22;19640;50.944;5.260;2023-07-31T00:42:01;16.90;99.90
33269;DHT22;19640;50.944;5.260;2023-07-31T00:44:29;17.00;99.90
33269;DHT22;19640;50.944;5.260;2023-07-31T00:46:56;17.00;99.90
33269;DHT22;19640;50.944;5.260;2023-07-31T00:49:22;17.00;99.90
33269;DHT22;19640;50.944;5.260;2023-07-31T00:51:48;17.00;99.90
33269;DHT22;19640;50.944;5.260;2023-07-31T00:54:14;17.00;99.90
33269;DHT22;19640;50.944;5.260;2023-07-31T00:56:41;17.00;99.90
33269;DHT22;19640;50.944;5.260;2023-07-31T00:59:08;16.90;99.90
33269;DHT22;19640;50.944;5.260;2023-07-31T01:01:33;17.10;99.90
33269;DHT22;19640;50.944;5.260;2023-07-31T01:03:59;17.10;99.90
33269;DHT22;19640;50.944;5.260;2023-07-31T01:06:40;17.20;99.90
33269;DHT22;19640;50.944;5.260;2023-07-31T01:12:03;17.30;99.90
33269;DHT22;19640;50.944;5.260;2023-07-31T01:14:29;17.30;99.90
33269;DHT22;19640;50.944;5.260;2023-07-31T01:16:57;17.40;99.90
33269;DHT22;19640;50.944;5.260;2023-07-31T01:19:24;17.40;99.90
33269;DHT22;19640;50.944;5.260;2023-07-31T01:24:28;17.40;99.90
33269;DHT22;19640;50.944;5.260;2023-07-31T01:26:58;17.50;99.90
33269;DHT22;19640;50.944;5.260;2023-07-31T01:29:38;17.50;99.90
33269;DHT22;19640;50.944;5.260;2023-07-31T01:32:09;17.60;99.90
33269;DHT22;19640;50.944;5.260;2023-07-31T01:34:36;17.60;99.90
33269;DHT22;19640;50.944;5.260;2023-07-31T01:37:02;17.50;99.90
33269;DHT22;19640;50.944;5.260;2023-07-31T01:39:28;17.50;99.90
33269;DHT22;19640;50.944;5.260;2023-07-31T01:41:54;17.50;99.90
33269;DHT22;19640;50.944;5.260;2023-07-31T01:44:20;17.50;99.90
33269;DHT22;19640;50.944;5.260;2023-07-31T01:46:45;17.50;99.90
33269;DHT22;19640;50.944;5.260;2023-07-31T01:49:11;17.50;99.90
33269;DHT22;19640;50.944;5.260;2023-07-31T01:51:37;17.50;99.90
33269;DHT22;19640;50.944;5.260;2023-07-31T01:54:02;17.50;99.90
33269;DHT22;19640;50.944;5.260;2023-07-31T01:56:28;17.50;99.90
33269;DHT22;19640;50.944;5.260;2023-07-31T01:58:54;17.60;99.90
33269;DHT22;19640;50.944;5.260;2023-07-31T02:01:21;17.50;99.90
33269;DHT22;19640;50.944;5.260;2023-07-31T02:03:46;17.50;99.90
33269;DHT22;19640;50.944;5.260;2023-07-31T02:06:12;17.60;99.90
33269;DHT22;19640;50.944;5.260;2023-07-31T02:08:37;17.70;99.90
33269;DHT22;19640;50.944;5.260;2023-07-31T02:11:03;17.70;99.90
33269;DHT22;19640;50.944;5.260;2023-07-31T02:13:29;17.70;99.90
33269;DHT22;19640;50.944;5.260;2023-07-31T02:15:54;17.60;99.90
33269;DHT22;19640;50.944;5.260;2023-07-31T02:18:20;17.50;99.90
33269;DHT22;19640;50.944;5.260;2023-07-31T02:20:50;17.50;99.90
33269;DHT22;19640;50.944;5.260;2023-07-31T02:23:20;17.60;99.90
33269;DHT22;19640;50.944;5.260;2023-07-31T02:25:46;17.60;99.90
33269;DHT22;19640;50.944;5.260;2023-07-31T02:28:11;17.70;99.90
33269;DHT22;19640;50.944;5.260;2023-07-31T02:30:37;17.70;99.90
33269;DHT22;19640;50.944;5.260;2023-07-31T02:33:04;17.80;99.90
33269;DHT22;19640;50.944;5.260;2023-07-31T02:35:30;17.60;99.90
33269;DHT22;19640;50.944;5.260;2023-07-31T02:37:55;17.60;99.90
33269;DHT22;19640;50.944;5.260;2023-07-31T02:40:21;17.60;99.90
33269;DHT22;19640;50.944;5.260;2023-07-31T02:42:47;17.50;99.90
33269;DHT22;19640;50.944;5.260;2023-07-31T02:45:12;17.50;99.90
33269;DHT22;19640;50.944;5.260;2023-07-31T02:47:38;17.40;99.90
33269;DHT22;19640;50.944;5.260;2023-07-31T02:50:04;17.50;99.90
33269;DHT22;19640;50.944;5.260;2023-07-31T02:52:30;17.60;99.90
33269;DHT22;19640;50.944;5.260;2023-07-31T02:54:56;17.50;99.90
33269;DHT22;19640;50.944;5.260;2023-07-31T02:57:22;17.50;99.90
33269;DHT22;19640;50.944;5.260;2023-07-31T02:59:48;17.50;99.90
33269;DHT22;19640;50.944;5.260;2023-07-31T03:02:14;17.60;99.90
33269;DHT22;19640;50.944;5.260;2023-07-31T03:04:39;17.70;99.90
33269;DHT22;19640;50.944;5.260;2023-07-31T03:07:05;17.50;99.90
33269;DHT22;19640;50.944;5.260;2023-07-31T03:09:31;17.50;99.90
33269;DHT22;19640;50.944;5.260;2023-07-31T03:11:57;17.40;99.90
33269;DHT22;19640;50.944;5.260;2023-07-31T03:14:23;17.50;99.90
33269;DHT22;19640;50.944;5.260;2023-07-31T03:16:49;17.50;99.90
33269;DHT22;19640;50.944;5.260;2023-07-31T03:19:14;17.60;99.90
33269;DHT22;19640;50.944;5.260;2023-07-31T03:21:41;17.60;99.90
33269;DHT22;19640;50.944;5.260;2023-07-31T03:24:06;17.70;99.90
33269;DHT22;19640;50.944;5.260;2023-07-31T03:26:33;17.80;99.90
33269;DHT22;19640;50.944;5.260;2023-07-31T03:28:58;17.90;99.90
33269;DHT22;19640;50.944;5.260;2023-07-31T03:31:24;17.90;99.90
33269;DHT22;19640;50.944;5.260;2023-07-31T03:33:50;17.70;99.90
33269;DHT22;19640;50.944;5.260;2023-07-31T03:36:15;17.70;99.90
33269;DHT22;19640;50.944;5.260;2023-07-31T03:38:41;17.80;99.90
33269;DHT22;19640;50.944;5.260;2023-07-31T03:41:06;17.80;99.90
33269;DHT22;19640;50.944;5.260;2023-07-31T03:43:32;17.80;99.90
33269;DHT22;19640;50.944;5.260;2023-07-31T03:46:01;17.80;99.90
33269;DHT22;19640;50.944;5.260;2023-07-31T03:48:28;17.90;99.90
33269;DHT22;19640;50.944;5.260;2023-07-31T03:50:54;17.80;99.90
33269;DHT22;19640;50.944;5.260;2023-07-31T03:53:20;17.90;99.90
33269;DHT22;19640;50.944;5.260;2023-07-31T03:55:46;17.80;99.90
33269;DHT22;19640;50.944;5.260;2023-07-31T03:58:12;17.80;99.90
33269;DHT22;19640;50.944;5.260;2023-07-31T04:00:40;17.80;99.90
33269;DHT22;19640;50.944;5.260;2023-07-31T04:03:05;17.70;99.90
33269;DHT22;19640;50.944;5.260;2023-07-31T04:05:32;17.50;99.90
33269;DHT22;19640;50.944;5.260;2023-07-31T04:07:58;17.50;99.90
33269;DHT22;19640;50.944;5.260;2023-07-31T04:10:24;17.50;99.90
33269;DHT22;19640;50.944;5.260;2023-07-31T04:12:51;17.60;99.90
33269;DHT22;19640;50.944;5.260;2023-07-31T04:15:20;17.60;99.90
33269;DHT22;19640;50.944;5.260;2023-07-31T04:17:45;17.80;99.90
33269;DHT22;19640;50.944;5.260;2023-07-31T04:20:12;17.90;99.90
33269;DHT22;19640;50.944;5.260;2023-07-31T04:22:38;17.80;99.90
33269;DHT22;19640;50.944;5.260;2023-07-31T04:25:03;17.90;99.90
33269;DHT22;19640;50.944;5.260;2023-07-31T04:27:29;17.90;99.90
33269;DHT22;19640;50.944;5.260;2023-07-31T04:29:55;17.90;99.90
33269;DHT22;19640;50.944;5.260;2023-07-31T04:32:20;17.80;99.90
33269;DHT22;19640;50.944;5.260;2023-07-31T04:34:46;17.70;99.90
33269;DHT22;19640;50.944;5.260;2023-07-31T04:37:12;17.80;99.90
33269;DHT22;19640;50.944;5.260;2023-07-31T04:39:39;17.70;99.90
33269;DHT22;19640;50.944;5.260;2023-07-31T04:42:06;17.70;99.90
33269;DHT22;19640;50.944;5.260;2023-07-31T04:44:32;17.80;99.90
33269;DHT22;19640;50.944;5.260;2023-07-31T04:46:58;17.90;99.90
33269;DHT22;19640;50.944;5.260;2023-07-31T04:49:24;17.70;99.90
33269;DHT22;19640;50.944;5.260;2023-07-31T04:51:49;17.60;99.90
33269;DHT22;19640;50.944;5.260;2023-07-31T04:54:15;17.60;99.90
33269;DHT22;19640;50.944;5.260;2023-07-31T04:56:41;17.60;99.90
33269;DHT22;19640;50.944;5.260;2023-07-31T04:59:07;17.60;99.90
33269;DHT22;19640;50.944;5.260;2023-07-31T05:01:35;17.60;99.90
33269;DHT22;19640;50.944;5.260;2023-07-31T05:04:00;17.50;99.90
33269;DHT22;19640;50.944;5.260;2023-07-31T05:06:26;17.50;99.90
33269;DHT22;19640;50.944;5.260;2023-07-31T05:08:51;17.40;99.90
33269;DHT22;19640;50.944;5.260;2023-07-31T05:11:17;17.50;99.90
33269;DHT22;19640;50.944;5.260;2023-07-31T05:13:43;17.30;99.90
33269;DHT22;19640;50.944;5.260;2023-07-31T05:16:08;17.30;99.90
33269;DHT22;19640;50.944;5.260;2023-07-31T05:18:34;17.30;99.90
33269;DHT22;19640;50.944;5.260;2023-07-31T05:21:00;17.40;99.90
33269;DHT22;19640;50.944;5.260;2023-07-31T05:23:25;17.40;99.90
33269;DHT22;19640;50.944;5.260;2023-07-31T05:25:51;17.50;99.90
33269;DHT22;19640;50.944;5.260;2023-07-31T05:28:16;17.50;99.90
33269;DHT22;19640;50.944;5.260;2023-07-31T05:30:43;17.50;99.90
33269;DHT22;19640;50.944;5.260;2023-07-31T05:33:09;17.50;99.90
33269;DHT22;19640;50.944;5.260;2023-07-31T05:35:34;17.50;99.90
33269;DHT22;19640;50.944;5.260;2023-07-31T05:38:00;17.40;99.90
33269;DHT22;19640;50.944;5.260;2023-07-31T05:40:26;17.50;99.90
33269;DHT22;19640;50.944;5.260;2023-07-31T05:42:52;17.50;99.90
33269;DHT22;19640;50.944;5.260;2023-07-31T05:45:17;17.50;99.90
33269;DHT22;19640;50.944;5.260;2023-07-31T05:47:43;17.50;99.90
33269;DHT22;19640;50.944;5.260;2023-07-31T05:50:09;17.50;99.90
33269;DHT22;19640;50.944;5.260;2023-07-31T05:52:34;17.60;99.90
33269;DHT22;19640;50.944;5.260;2023-07-31T05:55:00;17.60;99.90
33269;DHT22;19640;50.944;5.260;2023-07-31T05:57:26;17.60;99.90
33269;DHT22;19640;50.944;5.260;2023-07-31T05:59:52;17.50;99.90
33269;DHT22;19640;50.944;5.260;2023-07-31T06:02:19;17.40;99.90
33269;DHT22;19640;50.944;5.260;2023-07-31T06:04:44;17.30;99.90
33269;DHT22;19640;50.944;5.260;2023-07-31T06:07:10;17.30;99.90
33269;DHT22;19640;50.944;5.260;2023-07-31T06:09:36;17.30;99.90
33269;DHT22;19640;50.944;5.260;2023-07-31T06:12:02;17.20;99.90
33269;DHT22;19640;50.944;5.260;2023-07-31T06:14:27;17.20;99.90
33269;DHT22;19640;50.944;5.260;2023-07-31T06:16:53;17.20;99.90
33269;DHT22;19640;50.944;5.260;2023-07-31T06:19:19;17.10;99.90
33269;DHT22;19640;50.944;5.260;2023-07-31T06:21:45;17.10;99.90
33269;DHT22;19640;50.944;5.260;2023-07-31T06:24:11;17.00;99.90
33269;DHT22;19640;50.944;5.260;2023-07-31T06:26:37;17.10;99.90
33269;DHT22;19640;50.944;5.260;2023-07-31T06:29:03;17.00;99.90
33269;DHT22;19640;50.944;5.260;2023-07-31T06:31:29;17.00;99.90
33269;DHT22;19640;50.944;5.260;2023-07-31T06:33:54;16.90;99.90
33269;DHT22;19640;50.944;5.260;2023-07-31T06:36:20;17.00;99.90
33269;DHT22;19640;50.944;5.260;2023-07-31T06:38:46;17.10;99.90
33269;DHT22;19640;50.944;5.260;2023-07-31T06:41:11;17.10;99.90
33269;DHT22;19640;50.944;5.260;2023-07-31T06:43:37;16.90;99.90
33269;DHT22;19640;50.944;5.260;2023-07-31T06:46:07;17.10;99.90
33269;DHT22;19640;50.944;5.260;2023-07-31T06:48:33;17.00;99.90
33269;DHT22;19640;50.944;5.260;2023-07-31T06:51:00;17.10;99.90
33269;DHT22;19640;50.944;5.260;2023-07-31T06:53:26;17.10;99.90
33269;DHT22;19640;50.944;5.260;2023-07-31T06:55:51;17.10;99.90
33269;DHT22;19640;50.944;5.260;2023-07-31T06:58:17;17.20;99.90
33269;DHT22;19640;50.944;5.260;2023-07-31T07:00:43;17.20;99.90
33269;DHT22;19640;50.944;5.260;2023-07-31T07:03:09;17.20;99.90
33269;DHT22;19640;50.944;5.260;2023-07-31T07:05:35;17.30;99.90
33269;DHT22;19640;50.944;5.260;2023-07-31T07:08:01;17.30;99.90
33269;DHT22;19640;50.944;5.260;2023-07-31T07:10:27;17.20;99.90
33269;DHT22;19640;50.944;5.260;2023-07-31T07:12:53;17.30;99.90
33269;DHT22;19640;50.944;5.260;2023-07-31T07:15:20;17.50;99.90
33269;DHT22;19640;50.944;5.260;2023-07-31T07:17:46;17.30;99.90
33269;DHT22;19640;50.944;5.260;2023-07-31T07:20:12;17.40;99.90
33269;DHT22;19640;50.944;5.260;2023-07-31T07:22:38;17.40;99.90
33269;DHT22;19640;50.944;5.260;2023-07-31T07:25:04;17.40;99.90
33269;DHT22;19640;50.944;5.260;2023-07-31T07:27:30;17.30;99.90
33269;DHT22;19640;50.944;5.260;2023-07-31T07:29:56;17.40;99.90
33269;DHT22;19640;50.944;5.260;2023-07-31T07:32:21;17.50;99.90
33269;DHT22;19640;50.944;5.260;2023-07-31T07:34:48;17.70;99.90
33269;DHT22;19640;50.944;5.260;2023-07-31T07:37:14;17.80;99.90
33269;DHT22;19640;50.944;5.260;2023-07-31T07:39:41;17.80;99.90
33269;DHT22;19640;50.944;5.260;2023-07-31T07:42:07;17.50;99.90
33269;DHT22;19640;50.944;5.260;2023-07-31T07:44:34;17.50;99.90
33269;DHT22;19640;50.944;5.260;2023-07-31T07:47:00;17.50;99.90
33269;DHT22;19640;50.944;5.260;2023-07-31T07:49:26;17.40;99.90
33269;DHT22;19640;50.944;5.260;2023-07-31T07:51:52;17.50;99.90
33269;DHT22;19640;50.944;5.260;2023-07-31T07:54:17;17.50;99.90
33269;DHT22;19640;50.944;5.260;2023-07-31T07:56:44;17.60;99.90
33269;DHT22;19640;50.944;5.260;2023-07-31T07:59:10;17.70;99.90
33269;DHT22;19640;50.944;5.260;2023-07-31T08:01:35;17.70;99.90
33269;DHT22;19640;50.944;5.260;2023-07-31T08:04:01;17.60;99.90
33269;DHT22;19640;50.944;5.260;2023-07-31T08:06:27;17.60;99.90
33269;DHT22;19640;50.944;5.260;2023-07-31T08:08:52;17.80;99.90
33269;DHT22;19640;50.944;5.260;2023-07-31T08:11:19;17.80;99.90
33269;DHT22;19640;50.944;5.260;2023-07-31T08:13:45;17.60;99.90
33269;DHT22;19640;50.944;5.260;2023-07-31T08:16:10;17.50;99.90
33269;DHT22;19640;50.944;5.260;2023-07-31T08:18:36;17.70;99.90
33269;DHT22;19640;50.944;5.260;2023-07-31T08:21:02;17.80;99.90
33269;DHT22;19640;50.944;5.260;2023-07-31T08:23:28;17.80;99.90
33269;DHT22;19640;50.944;5.260;2023-07-31T08:25:54;17.60;99.90
33269;DHT22;19640;50.944;5.260;2023-07-31T08:28:19;17.70;99.90
33269;DHT22;19640;50.944;5.260;2023-07-31T08:30:45;17.60;99.90
33269;DHT22;19640;50.944;5.260;2023-07-31T08:33:11;17.60;99.90
33269;DHT22;19640;50.944;5.260;2023-07-31T08:35:36;17.70;99.90
33269;DHT22;19640;50.944;5.260;2023-07-31T08:38:02;17.90;99.90
33269;DHT22;19640;50.944;5.260;2023-07-31T08:40:28;17.70;99.90
33269;DHT22;19640;50.944;5.260;2023-07-31T08:42:55;17.70;99.90
33269;DHT22;19640;50.944;5.260;2023-07-31T08:45:28;17.80;99.90
33269;DHT22;19640;50.944;5.260;2023-07-31T08:47:55;17.70;99.90
33269;DHT22;19640;50.944;5.260;2023-07-31T08:50:21;17.70;99.90
33269;DHT22;19640;50.944;5.260;2023-07-31T08:52:49;17.80;99.90
33269;DHT22;19640;50.944;5.260;2023-07-31T08:55:15;17.60;99.90
33269;DHT22;19640;50.944;5.260;2023-07-31T08:57:42;17.80;99.90
33269;DHT22;19640;50.944;5.260;2023-07-31T09:00:09;17.90;99.90
33269;DHT22;19640;50.944;5.260;2023-07-31T09:03:02;17.70;99.90
33269;DHT22;19640;50.944;5.260;2023-07-31T09:05:30;17.90;99.90
33269;DHT22;19640;50.944;5.260;2023-07-31T09:07:57;17.90;99.90
33269;DHT22;19640;50.944;5.260;2023-07-31T09:10:23;17.90;99.90
33269;DHT22;19640;50.944;5.260;2023-07-31T09:12:51;18.00;99.90
33269;DHT22;19640;50.944;5.260;2023-07-31T09:15:17;18.00;99.90
33269;DHT22;19640;50.944;5.260;2023-07-31T09:17:43;18.10;99.90
33269;DHT22;19640;50.944;5.260;2023-07-31T09:20:15;18.20;99.90
33269;DHT22;19640;50.944;5.260;2023-07-31T09:22:42;18.20;99.90
33269;DHT22;19640;50.944;5.260;2023-07-31T09:25:19;18.30;99.90
33269;DHT22;19640;50.944;5.260;2023-07-31T09:27:59;18.10;99.90
33269;DHT22;19640;50.944;5.260;2023-07-31T09:30:25;18.10;99.90
33269;DHT22;19640;50.944;5.260;2023-07-31T09:33:02;18.10;99.90
33269;DHT22;19640;50.944;5.260;2023-07-31T09:35:33;17.90;99.90
33269;DHT22;19640;50.944;5.260;2023-07-31T09:38:03;17.90;99.90
33269;DHT22;19640;50.944;5.260;2023-07-31T09:40:35;18.00;99.90
33269;DHT22;19640;50.944;5.260;2023-07-31T09:43:06;17.90;99.90
33269;DHT22;19640;50.944;5.260;2023-07-31T09:45:35;18.10;99.90
33269;DHT22;19640;50.944;5.260;2023-07-31T09:48:07;18.10;99.90
33269;DHT22;19640;50.944;5.260;2023-07-31T09:50:39;18.10;99.90
33269;DHT22;19640;50.944;5.260;2023-07-31T09:53:06;18.20;99.90
33269;DHT22;19640;50.944;5.260;2023-07-31T09:55:32;18.30;99.90
33269;DHT22;19640;50.944;5.260;2023-07-31T09:57:58;18.40;99.90
33269;DHT22;19640;50.944;5.260;2023-07-31T10:00:25;18.40;99.90
33269;DHT22;19640;50.944;5.260;2023-07-31T10:02:53;18.50;99.90
33269;DHT22;19640;50.944;5.260;2023-07-31T10:05:20;18.50;99.90
33269;DHT22;19640;50.944;5.260;2023-07-31T10:07:55;18.50;99.90
33269;DHT22;19640;50.944;5.260;2023-07-31T10:10:22;18.30;99.90
33269;DHT22;19640;50.944;5.260;2023-07-31T10:12:49;18.20;99.90
33269;DHT22;19640;50.944;5.260;2023-07-31T10:15:15;18.10;99.90
33269;DHT22;19640;50.944;5.260;2023-07-31T10:17:42;18.20;99.90
33269;DHT22;19640;50.944;5.260;2023-07-31T10:20:08;18.30;99.90
33269;DHT22;19640;50.944;5.260;2023-07-31T10:22:34;18.50;99.90
33269;DHT22;19640;50.944;5.260;2023-07-31T10:25:00;18.50;99.90
33269;DHT22;19640;50.944;5.260;2023-07-31T10:27:27;18.50;99.90
33269;DHT22;19640;50.944;5.260;2023-07-31T10:29:55;18.70;99.90
33269;DHT22;19640;50.944;5.260;2023-07-31T10:32:21;18.70;99.90
33269;DHT22;19640;50.944;5.260;2023-07-31T10:34:49;18.80;99.90
33269;DHT22;19640;50.944;5.260;2023-07-31T10:37:27;18.80;99.90
33269;DHT22;19640;50.944;5.260;2023-07-31T10:42:36;18.80;99.90
33269;DHT22;19640;50.944;5.260;2023-07-31T10:45:10;18.80;99.90
33269;DHT22;19640;50.944;5.260;2023-07-31T10:47:43;18.90;99.90
33269;DHT22;19640;50.944;5.260;2023-07-31T10:50:22;19.10;99.90
33269;DHT22;19640;50.944;5.260;2023-07-31T10:52:51;19.20;99.90
33269;DHT22;19640;50.944;5.260;2023-07-31T10:58:09;19.30;99.90
33269;DHT22;19640;50.944;5.260;2023-07-31T11:00:43;19.30;99.90
33269;DHT22;19640;50.944;5.260;2023-07-31T11:03:10;19.40;99.90
33269;DHT22;19640;50.944;5.260;2023-07-31T11:11:11;19.20;99.90
33269;DHT22;19640;50.944;5.260;2023-07-31T11:16:06;19.20;99.90
33269;DHT22;19640;50.944;5.260;2023-07-31T11:18:32;19.60;99.90
33269;DHT22;19640;50.944;5.260;2023-07-31T11:20:58;19.60;99.90
33269;DHT22;19640;50.944;5.260;2023-07-31T11:23:24;19.50;99.90
33269;DHT22;19640;50.944;5.260;2023-07-31T11:25:50;19.60;99.90
33269;DHT22;19640;50.944;5.260;2023-07-31T11:28:18;19.70;99.90
33269;DHT22;19640;50.944;5.260;2023-07-31T11:30:45;19.70;99.90
33269;DHT22;19640;50.944;5.260;2023-07-31T11:33:13;19.80;99.90
33269;DHT22;19640;50.944;5.260;2023-07-31T11:35:45;19.90;99.90
33269;DHT22;19640;50.944;5.260;2023-07-31T11:38:26;19.90;99.90
33269;DHT22;19640;50.944;5.260;2023-07-31T11:40:53;19.90;99.90
33269;DHT22;19640;50.944;5.260;2023-07-31T11:43:20;20.10;99.90
33269;DHT22;19640;50.944;5.260;2023-07-31T11:45:54;20.30;99.90
33269;DHT22;19640;50.944;5.260;2023-07-31T11:48:21;20.40;99.90
33269;DHT22;19640;50.944;5.260;2023-07-31T11:50:49;20.40;99.90
33269;DHT22;19640;50.944;5.260;2023-07-31T11:53:17;20.40;99.90
33269;DHT22;19640;50.944;5.260;2023-07-31T11:55:45;20.60;99.90
33269;DHT22;19640;50.944;5.260;2023-07-31T11:58:14;20.80;99.90
33269;DHT22;19640;50.944;5.260;2023-07-31T12:00:41;20.70;99.90
33269;DHT22;19640;50.944;5.260;2023-07-31T12:03:08;20.60;99.90
33269;DHT22;19640;50.944;5.260;2023-07-31T12:05:34;20.50;99.90
33269;DHT22;19640;50.944;5.260;2023-07-31T12:08:00;20.60;99.90
33269;DHT22;19640;50.944;5.260;2023-07-31T12:10:30;20.60;99.90
33269;DHT22;19640;50.944;5.260;2023-07-31T12:13:02;20.60;99.90
33269;DHT22;19640;50.944;5.260;2023-07-31T12:15:37;20.60;99.90
33269;DHT22;19640;50.944;5.260;2023-07-31T12:18:11;20.60;99.90
33269;DHT22;19640;50.944;5.260;2023-07-31T12:20:45;20.50;99.90
33269;DHT22;19640;50.944;5.260;2023-07-31T12:23:19;20.30;99.90
33269;DHT22;19640;50.944;5.260;2023-07-31T12:26:10;20.30;99.90
33269;DHT22;19640;50.944;5.260;2023-07-31T12:28:47;20.30;99.90
33269;DHT22;19640;50.944;5.260;2023-07-31T12:31:17;20.40;99.90
33269;DHT22;19640;50.944;5.260;2023-07-31T12:33:43;20.70;99.90
33269;DHT22;19640;50.944;5.260;2023-07-31T12:36:11;20.70;99.90
33269;DHT22;19640;50.944;5.260;2023-07-31T12:38:37;21.10;99.90
33269;DHT22;19640;50.944;5.260;2023-07-31T12:41:03;21.40;99.90
33269;DHT22;19640;50.944;5.260;2023-07-31T12:43:29;21.60;99.90
33269;DHT22;19640;50.944;5.260;2023-07-31T12:45:55;21.50;99.90
33269;DHT22;19640;50.944;5.260;2023-07-31T12:48:24;21.40;99.90
33269;DHT22;19640;50.944;5.260;2023-07-31T12:50:50;21.50;99.90
33269;DHT22;19640;50.944;5.260;2023-07-31T12:53:15;21.30;99.90
33269;DHT22;19640;50.944;5.260;2023-07-31T12:55:41;21.00;99.90
33269;DHT22;19640;50.944;5.260;2023-07-31T12:58:07;21.00;99.90
33269;DHT22;19640;50.944;5.260;2023-07-31T13:00:33;21.00;99.90
33269;DHT22;19640;50.944;5.260;2023-07-31T13:03:00;20.90;99.90
33269;DHT22;19640;50.944;5.260;2023-07-31T13:05:27;20.70;99.90
33269;DHT22;19640;50.944;5.260;2023-07-31T13:07:53;20.50;99.90
33269;DHT22;19640;50.944;5.260;2023-07-31T13:10:20;20.50;99.90
33269;DHT22;19640;50.944;5.260;2023-07-31T13:12:46;20.50;99.90
33269;DHT22;19640;50.944;5.260;2023-07-31T13:15:12;20.60;99.90
33269;DHT22;19640;50.944;5.260;2023-07-31T13:17:38;20.60;99.90
33269;DHT22;19640;50.944;5.260;2023-07-31T13:20:04;20.50;99.90
33269;DHT22;19640;50.944;5.260;2023-07-31T13:22:32;20.40;99.90
33269;DHT22;19640;50.944;5.260;2023-07-31T13:24:57;20.50;99.90
33269;DHT22;19640;50.944;5.260;2023-07-31T13:27:24;20.60;99.90
33269;DHT22;19640;50.944;5.260;2023-07-31T13:29:51;20.50;99.90
33269;DHT22;19640;50.944;5.260;2023-07-31T13:32:18;20.50;99.90
33269;DHT22;19640;50.944;5.260;2023-07-31T13:34:44;20.40;99.90
33269;DHT22;19640;50.944;5.260;2023-07-31T13:37:11;20.50;99.90
33269;DHT22;19640;50.944;5.260;2023-07-31T13:39:37;20.50;99.90
33269;DHT22;19640;50.944;5.260;2023-07-31T13:42:05;20.50;99.90
33269;DHT22;19640;50.944;5.260;2023-07-31T13:44:37;20.50;99.90
33269;DHT22;19640;50.944;5.260;2023-07-31T13:47:03;20.40;99.90
33269;DHT22;19640;50.944;5.260;2023-07-31T13:49:29;20.40;99.90
33269;DHT22;19640;50.944;5.260;2023-07-31T13:51:55;20.40;99.90
33269;DHT22;19640;50.944;5.260;2023-07-31T13:54:22;20.30;99.90
33269;DHT22;19640;50.944;5.260;2023-07-31T13:56:48;20.30;99.90
33269;DHT22;19640;50.944;5.260;2023-07-31T13:59:15;20.30;99.90
33269;DHT22;19640;50.944;5.260;2023-07-31T14:01:42;20.20;99.90
33269;DHT22;19640;50.944;5.260;2023-07-31T14:04:08;20.20;99.90
33269;DHT22;19640;50.944;5.260;2023-07-31T14:06:34;20.20;99.90
33269;DHT22;19640;50.944;5.260;2023-07-31T14:09:00;20.10;99.90
33269;DHT22;19640;50.944;5.260;2023-07-31T14:11:26;20.20;99.90
33269;DHT22;19640;50.944;5.260;2023-07-31T14:13:52;20.20;99.90
33269;DHT22;19640;50.944;5.260;2023-07-31T14:16:18;20.20;99.90
33269;DHT22;19640;50.944;5.260;2023-07-31T14:18:43;20.20;99.90
33269;DHT22;19640;50.944;5.260;2023-07-31T14:21:11;20.00;99.90
33269;DHT22;19640;50.944;5.260;2023-07-31T14:23:36;20.00;99.90
33269;DHT22;19640;50.944;5.260;2023-07-31T14:26:03;19.80;99.90
33269;DHT22;19640;50.944;5.260;2023-07-31T14:28:29;19.80;99.90
33269;DHT22;19640;50.944;5.260;2023-07-31T14:30:55;19.50;99.90
33269;DHT22;19640;50.944;5.260;2023-07-31T14:33:21;19.40;99.90
33269;DHT22;19640;50.944;5.260;2023-07-31T14:35:46;19.30;99.90
33269;DHT22;19640;50.944;5.260;2023-07-31T14:38:14;19.10;99.90
33269;DHT22;19640;50.944;5.260;2023-07-31T14:40:40;19.00;99.90
33269;DHT22;19640;50.944;5.260;2023-07-31T14:43:07;18.90;99.90
33269;DHT22;19640;50.944;5.260;2023-07-31T14:45:33;19.10;99.90
33269;DHT22;19640;50.944;5.260;2023-07-31T14:47:58;19.00;99.90
33269;DHT22;19640;50.944;5.260;2023-07-31T14:50:25;19.00;99.90
33269;DHT22;19640;50.944;5.260;2023-07-31T14:52:52;19.00;99.90
33269;DHT22;19640;50.944;5.260;2023-07-31T14:55:18;19.10;99.90
33269;DHT22;19640;50.944;5.260;2023-07-31T14:57:44;18.90;99.90
33269;DHT22;19640;50.944;5.260;2023-07-31T15:00:10;18.80;99.90
33269;DHT22;19640;50.944;5.260;2023-07-31T15:02:39;18.90;99.90
33269;DHT22;19640;50.944;5.260;2023-07-31T15:05:05;18.90;99.90
33269;DHT22;19640;50.944;5.260;2023-07-31T15:07:34;18.90;99.90
33269;DHT22;19640;50.944;5.260;2023-07-31T15:10:03;19.00;99.90
33269;DHT22;19640;50.944;5.260;2023-07-31T15:12:29;19.00;99.90
33269;DHT22;19640;50.944;5.260;2023-07-31T15:14:55;18.90;99.90
33269;DHT22;19640;50.944;5.260;2023-07-31T15:17:21;18.80;99.90
33269;DHT22;19640;50.944;5.260;2023-07-31T15:19:46;18.70;99.90
33269;DHT22;19640;50.944;5.260;2023-07-31T15:22:12;18.60;99.90
33269;DHT22;19640;50.944;5.260;2023-07-31T15:24:38;18.50;99.90
33269;DHT22;19640;50.944;5.260;2023-07-31T15:27:03;18.50;99.90
33269;DHT22;19640;50.944;5.260;2023-07-31T15:29:30;18.70;99.90
33269;DHT22;19640;50.944;5.260;2023-07-31T15:31:56;18.60;99.90
33269;DHT22;19640;50.944;5.260;2023-07-31T15:34:21;18.70;99.90
33269;DHT22;19640;50.944;5.260;2023-07-31T15:36:49;18.80;99.90
33269;DHT22;19640;50.944;5.260;2023-07-31T15:39:16;18.80;99.90
33269;DHT22;19640;50.944;5.260;2023-07-31T15:41:41;18.70;99.90
33269;DHT22;19640;50.944;5.260;2023-07-31T15:44:07;18.60;99.90
33269;DHT22;19640;50.944;5.260;2023-07-31T15:46:33;18.60;99.90